sensor_id;sensor_type;location;lat;lon;timestamp;P1;durP1;ratioP1;P2;durP2;ratioP2
51304;SDS011;37392;50.964;6.952;2023-02-15T00:01:54;70.07;;;32.67;;
51304;SDS011;37392;50.964;6.952;2023-02-15T00:04:21;75.13;;;33.97;;
51304;SDS011;37392;50.964;6.952;2023-02-15T00:06:49;73.03;;;32.60;;
51304;SDS011;37392;50.964;6.952;2023-02-15T00:09:15;75.95;;;32.42;;
51304;SDS011;37392;50.964;6.952;2023-02-15T00:11:44;68.35;;;31.88;;
51304;SDS011;37392;50.964;6.952;2023-02-15T00:14:17;77.43;;;33.33;;
51304;SDS011;37392;50.964;6.952;2023-02-15T00:16:49;79.93;;;35.17;;
51304;SDS011;37392;50.964;6.952;2023-02-15T00:19:17;74.03;;;32.70;;
51304;SDS011;37392;50.964;6.952;2023-02-15T00:21:45;70.00;;;31.75;;
51304;SDS011;37392;50.964;6.952;2023-02-15T00:24:12;65.68;;;30.95;;
51304;SDS011;37392;50.964;6.952;2023-02-15T00:26:40;74.45;;;34.67;;
51304;SDS011;37392;50.964;6.952;2023-02-15T00:29:08;75.15;;;33.53;;
51304;SDS011;37392;50.964;6.952;2023-02-15T00:31:35;77.60;;;37.75;;
51304;SDS011;37392;50.964;6.952;2023-02-15T00:36:40;77.32;;;32.42;;
51304;SDS011;37392;50.964;6.952;2023-02-15T00:39:06;77.28;;;33.13;;
51304;SDS011;37392;50.964;6.952;2023-02-15T00:41:32;74.90;;;32.67;;
51304;SDS011;37392;50.964;6.952;2023-02-15T00:43:58;67.55;;;31.95;;
51304;SDS011;37392;50.964;6.952;2023-02-15T00:46:24;77.70;;;34.15;;
51304;SDS011;37392;50.964;6.952;2023-02-15T00:48:50;79.60;;;32.85;;
51304;SDS011;37392;50.964;6.952;2023-02-15T00:51:15;83.38;;;33.63;;
51304;SDS011;37392;50.964;6.952;2023-02-15T00:53:42;71.43;;;35.03;;
51304;SDS011;37392;50.964;6.952;2023-02-15T00:56:09;76.22;;;33.85;;
51304;SDS011;37392;50.964;6.952;2023-02-15T00:58:36;75.30;;;34.53;;
51304;SDS011;37392;50.964;6.952;2023-02-15T01:01:06;82.38;;;35.95;;
51304;SDS011;37392;50.964;6.952;2023-02-15T01:03:35;72.47;;;33.47;;
51304;SDS011;37392;50.964;6.952;2023-02-15T01:06:01;76.70;;;33.83;;
51304;SDS011;37392;50.964;6.952;2023-02-15T01:08:28;75.72;;;32.78;;
51304;SDS011;37392;50.964;6.952;2023-02-15T01:10:55;83.95;;;36.08;;
51304;SDS011;37392;50.964;6.952;2023-02-15T01:13:21;83.93;;;33.83;;
51304;SDS011;37392;50.964;6.952;2023-02-15T01:15:52;84.43;;;34.75;;
51304;SDS011;37392;50.964;6.952;2023-02-15T01:18:19;85.00;;;34.45;;
51304;SDS011;37392;50.964;6.952;2023-02-15T01:20:45;74.43;;;32.97;;
51304;SDS011;37392;50.964;6.952;2023-02-15T01:23:12;77.68;;;30.30;;
51304;SDS011;37392;50.964;6.952;2023-02-15T01:25:38;71.93;;;32.88;;
51304;SDS011;37392;50.964;6.952;2023-02-15T01:28:03;74.88;;;33.95;;
51304;SDS011;37392;50.964;6.952;2023-02-15T01:30:29;80.15;;;32.35;;
51304;SDS011;37392;50.964;6.952;2023-02-15T01:32:55;78.75;;;36.08;;
51304;SDS011;37392;50.964;6.952;2023-02-15T01:35:22;76.15;;;34.53;;
51304;SDS011;37392;50.964;6.952;2023-02-15T01:37:48;74.88;;;33.03;;
51304;SDS011;37392;50.964;6.952;2023-02-15T01:40:15;83.25;;;33.30;;
51304;SDS011;37392;50.964;6.952;2023-02-15T01:42:42;68.35;;;31.30;;
51304;SDS011;37392;50.964;6.952;2023-02-15T01:45:20;74.20;;;32.03;;
51304;SDS011;37392;50.964;6.952;2023-02-15T01:50:34;73.70;;;31.45;;
51304;SDS011;37392;50.964;6.952;2023-02-15T01:53:08;69.25;;;30.13;;
51304;SDS011;37392;50.964;6.952;2023-02-15T01:55:59;71.72;;;33.55;;
51304;SDS011;37392;50.964;6.952;2023-02-15T01:58:53;73.75;;;32.22;;
51304;SDS011;37392;50.964;6.952;2023-02-15T02:01:23;72.78;;;31.20;;
51304;SDS011;37392;50.964;6.952;2023-02-15T02:06:47;83.05;;;32.08;;
51304;SDS011;37392;50.964;6.952;2023-02-15T02:09:15;87.57;;;32.55;;
51304;SDS011;37392;50.964;6.952;2023-02-15T02:11:41;77.43;;;32.60;;
51304;SDS011;37392;50.964;6.952;2023-02-15T02:14:09;80.15;;;32.40;;
51304;SDS011;37392;50.964;6.952;2023-02-15T02:19:44;67.93;;;29.05;;
51304;SDS011;37392;50.964;6.952;2023-02-15T02:22:36;75.88;;;32.65;;
51304;SDS011;37392;50.964;6.952;2023-02-15T02:34:19;71.65;;;30.25;;
51304;SDS011;37392;50.964;6.952;2023-02-15T02:37:13;80.18;;;34.28;;
51304;SDS011;37392;50.964;6.952;2023-02-15T02:45:57;71.68;;;30.63;;
51304;SDS011;37392;50.964;6.952;2023-02-15T02:48:30;78.72;;;32.95;;
51304;SDS011;37392;50.964;6.952;2023-02-15T02:50:58;74.90;;;32.33;;
51304;SDS011;37392;50.964;6.952;2023-02-15T02:53:24;74.55;;;30.73;;
51304;SDS011;37392;50.964;6.952;2023-02-15T02:55:55;80.43;;;32.50;;
51304;SDS011;37392;50.964;6.952;2023-02-15T02:58:34;70.63;;;29.33;;
51304;SDS011;37392;50.964;6.952;2023-02-15T03:01:06;75.68;;;30.90;;
51304;SDS011;37392;50.964;6.952;2023-02-15T03:03:53;79.18;;;32.58;;
51304;SDS011;37392;50.964;6.952;2023-02-15T03:06:33;74.95;;;29.67;;
51304;SDS011;37392;50.964;6.952;2023-02-15T03:09:45;76.47;;;32.10;;
51304;SDS011;37392;50.964;6.952;2023-02-15T03:12:14;72.90;;;31.70;;
51304;SDS011;37392;50.964;6.952;2023-02-15T03:17:51;75.15;;;30.45;;
51304;SDS011;37392;50.964;6.952;2023-02-15T03:20:28;70.95;;;29.85;;
51304;SDS011;37392;50.964;6.952;2023-02-15T03:22:59;68.95;;;31.38;;
51304;SDS011;37392;50.964;6.952;2023-02-15T03:25:33;70.97;;;28.63;;
51304;SDS011;37392;50.964;6.952;2023-02-15T03:28:08;70.63;;;28.10;;
51304;SDS011;37392;50.964;6.952;2023-02-15T03:30:45;74.13;;;31.13;;
51304;SDS011;37392;50.964;6.952;2023-02-15T03:33:17;70.35;;;31.27;;
51304;SDS011;37392;50.964;6.952;2023-02-15T03:35:46;69.15;;;29.10;;
51304;SDS011;37392;50.964;6.952;2023-02-15T03:38:24;70.90;;;30.02;;
51304;SDS011;37392;50.964;6.952;2023-02-15T03:40:55;71.90;;;28.45;;
51304;SDS011;37392;50.964;6.952;2023-02-15T03:46:30;71.63;;;28.85;;
51304;SDS011;37392;50.964;6.952;2023-02-15T03:49:05;73.75;;;28.40;;
51304;SDS011;37392;50.964;6.952;2023-02-15T03:51:36;69.60;;;28.05;;
51304;SDS011;37392;50.964;6.952;2023-02-15T03:54:19;72.28;;;28.13;;
51304;SDS011;37392;50.964;6.952;2023-02-15T03:57:27;72.85;;;28.55;;
51304;SDS011;37392;50.964;6.952;2023-02-15T04:00:22;82.88;;;30.23;;
51304;SDS011;37392;50.964;6.952;2023-02-15T04:05:45;73.38;;;29.38;;
51304;SDS011;37392;50.964;6.952;2023-02-15T04:08:11;85.13;;;31.13;;
51304;SDS011;37392;50.964;6.952;2023-02-15T04:10:37;72.05;;;30.92;;
51304;SDS011;37392;50.964;6.952;2023-02-15T04:13:20;75.00;;;31.77;;
51304;SDS011;37392;50.964;6.952;2023-02-15T04:15:55;77.28;;;28.88;;
51304;SDS011;37392;50.964;6.952;2023-02-15T04:18:36;73.93;;;29.33;;
51304;SDS011;37392;50.964;6.952;2023-02-15T04:21:27;70.45;;;27.55;;
51304;SDS011;37392;50.964;6.952;2023-02-15T04:24:13;68.72;;;28.08;;
51304;SDS011;37392;50.964;6.952;2023-02-15T04:26:58;71.32;;;29.00;;
51304;SDS011;37392;50.964;6.952;2023-02-15T04:29:25;81.13;;;30.92;;
51304;SDS011;37392;50.964;6.952;2023-02-15T04:31:53;72.10;;;30.13;;
51304;SDS011;37392;50.964;6.952;2023-02-15T04:34:20;83.65;;;32.42;;
51304;SDS011;37392;50.964;6.952;2023-02-15T04:36:46;74.10;;;30.55;;
51304;SDS011;37392;50.964;6.952;2023-02-15T04:39:12;76.18;;;28.60;;
51304;SDS011;37392;50.964;6.952;2023-02-15T04:41:39;77.78;;;28.23;;
51304;SDS011;37392;50.964;6.952;2023-02-15T04:44:05;71.30;;;31.48;;
51304;SDS011;37392;50.964;6.952;2023-02-15T04:46:31;82.10;;;30.02;;
51304;SDS011;37392;50.964;6.952;2023-02-15T04:48:57;65.13;;;26.85;;
51304;SDS011;37392;50.964;6.952;2023-02-15T04:51:23;66.43;;;28.05;;
51304;SDS011;37392;50.964;6.952;2023-02-15T04:53:49;69.15;;;28.98;;
51304;SDS011;37392;50.964;6.952;2023-02-15T04:56:17;66.60;;;28.45;;
51304;SDS011;37392;50.964;6.952;2023-02-15T04:58:46;62.70;;;25.85;;
51304;SDS011;37392;50.964;6.952;2023-02-15T05:01:13;72.00;;;28.40;;
51304;SDS011;37392;50.964;6.952;2023-02-15T05:03:39;72.70;;;27.75;;
51304;SDS011;37392;50.964;6.952;2023-02-15T05:06:04;72.35;;;27.92;;
51304;SDS011;37392;50.964;6.952;2023-02-15T05:08:30;70.07;;;29.00;;
51304;SDS011;37392;50.964;6.952;2023-02-15T05:10:56;82.15;;;29.90;;
51304;SDS011;37392;50.964;6.952;2023-02-15T05:13:23;66.70;;;28.52;;
51304;SDS011;37392;50.964;6.952;2023-02-15T05:15:49;58.25;;;27.40;;
51304;SDS011;37392;50.964;6.952;2023-02-15T05:18:16;65.80;;;27.98;;
51304;SDS011;37392;50.964;6.952;2023-02-15T05:20:43;72.32;;;29.35;;
51304;SDS011;37392;50.964;6.952;2023-02-15T05:23:09;81.60;;;27.98;;
51304;SDS011;37392;50.964;6.952;2023-02-15T05:25:35;70.93;;;28.75;;
51304;SDS011;37392;50.964;6.952;2023-02-15T05:28:30;66.13;;;27.65;;
51304;SDS011;37392;50.964;6.952;2023-02-15T05:33:37;63.63;;;27.42;;
51304;SDS011;37392;50.964;6.952;2023-02-15T05:36:04;62.85;;;26.75;;
51304;SDS011;37392;50.964;6.952;2023-02-15T05:38:31;71.95;;;29.25;;
51304;SDS011;37392;50.964;6.952;2023-02-15T05:40:57;66.95;;;26.35;;
51304;SDS011;37392;50.964;6.952;2023-02-15T05:43:23;69.15;;;28.48;;
51304;SDS011;37392;50.964;6.952;2023-02-15T05:45:49;61.67;;;25.85;;
51304;SDS011;37392;50.964;6.952;2023-02-15T05:48:20;66.95;;;27.52;;
51304;SDS011;37392;50.964;6.952;2023-02-15T05:53:34;72.07;;;28.17;;
51304;SDS011;37392;50.964;6.952;2023-02-15T05:56:03;61.33;;;27.40;;
51304;SDS011;37392;50.964;6.952;2023-02-15T05:58:40;69.95;;;28.05;;
51304;SDS011;37392;50.964;6.952;2023-02-15T06:03:46;67.05;;;25.85;;
51304;SDS011;37392;50.964;6.952;2023-02-15T06:06:11;66.55;;;28.65;;
51304;SDS011;37392;50.964;6.952;2023-02-15T06:08:39;62.03;;;26.58;;
51304;SDS011;37392;50.964;6.952;2023-02-15T06:11:05;63.00;;;27.35;;
51304;SDS011;37392;50.964;6.952;2023-02-15T06:13:31;62.05;;;25.13;;
51304;SDS011;37392;50.964;6.952;2023-02-15T06:15:57;57.30;;;25.70;;
51304;SDS011;37392;50.964;6.952;2023-02-15T06:18:23;67.32;;;26.83;;
51304;SDS011;37392;50.964;6.952;2023-02-15T06:20:48;72.10;;;25.75;;
51304;SDS011;37392;50.964;6.952;2023-02-15T06:23:14;64.60;;;25.27;;
51304;SDS011;37392;50.964;6.952;2023-02-15T06:25:40;59.65;;;25.52;;
51304;SDS011;37392;50.964;6.952;2023-02-15T06:28:06;60.92;;;24.98;;
51304;SDS011;37392;50.964;6.952;2023-02-15T06:30:32;62.85;;;26.98;;
51304;SDS011;37392;50.964;6.952;2023-02-15T06:32:58;62.45;;;26.98;;
51304;SDS011;37392;50.964;6.952;2023-02-15T06:35:24;65.93;;;28.00;;
51304;SDS011;37392;50.964;6.952;2023-02-15T06:37:49;67.20;;;27.30;;
51304;SDS011;37392;50.964;6.952;2023-02-15T06:40:15;63.33;;;24.73;;
51304;SDS011;37392;50.964;6.952;2023-02-15T06:42:41;56.83;;;23.77;;
51304;SDS011;37392;50.964;6.952;2023-02-15T06:45:07;59.05;;;26.08;;
51304;SDS011;37392;50.964;6.952;2023-02-15T06:47:34;59.25;;;24.20;;
51304;SDS011;37392;50.964;6.952;2023-02-15T06:50:00;55.70;;;22.95;;
51304;SDS011;37392;50.964;6.952;2023-02-15T06:52:25;54.78;;;25.33;;
51304;SDS011;37392;50.964;6.952;2023-02-15T06:54:51;51.42;;;23.20;;
51304;SDS011;37392;50.964;6.952;2023-02-15T06:57:17;57.53;;;23.83;;
51304;SDS011;37392;50.964;6.952;2023-02-15T06:59:42;65.05;;;23.85;;
51304;SDS011;37392;50.964;6.952;2023-02-15T07:02:08;57.58;;;24.60;;
51304;SDS011;37392;50.964;6.952;2023-02-15T07:04:36;59.50;;;24.40;;
51304;SDS011;37392;50.964;6.952;2023-02-15T07:07:02;64.95;;;27.52;;
51304;SDS011;37392;50.964;6.952;2023-02-15T07:09:28;47.00;;;22.23;;
51304;SDS011;37392;50.964;6.952;2023-02-15T07:11:53;55.97;;;24.65;;
51304;SDS011;37392;50.964;6.952;2023-02-15T07:14:37;56.67;;;24.42;;
51304;SDS011;37392;50.964;6.952;2023-02-15T07:17:03;52.70;;;23.20;;
51304;SDS011;37392;50.964;6.952;2023-02-15T07:19:28;46.65;;;23.00;;
51304;SDS011;37392;50.964;6.952;2023-02-15T07:21:54;47.83;;;21.73;;
51304;SDS011;37392;50.964;6.952;2023-02-15T07:24:19;44.42;;;21.35;;
51304;SDS011;37392;50.964;6.952;2023-02-15T07:26:45;42.42;;;22.27;;
51304;SDS011;37392;50.964;6.952;2023-02-15T07:29:10;38.67;;;20.10;;
51304;SDS011;37392;50.964;6.952;2023-02-15T07:31:36;38.38;;;19.15;;
51304;SDS011;37392;50.964;6.952;2023-02-15T07:34:02;37.45;;;19.35;;
51304;SDS011;37392;50.964;6.952;2023-02-15T07:36:27;39.85;;;20.15;;
51304;SDS011;37392;50.964;6.952;2023-02-15T07:38:53;34.60;;;19.10;;
51304;SDS011;37392;50.964;6.952;2023-02-15T07:41:19;37.70;;;19.88;;
51304;SDS011;37392;50.964;6.952;2023-02-15T07:43:44;37.22;;;19.17;;
51304;SDS011;37392;50.964;6.952;2023-02-15T07:46:12;37.83;;;19.63;;
51304;SDS011;37392;50.964;6.952;2023-02-15T07:48:41;33.85;;;19.33;;
51304;SDS011;37392;50.964;6.952;2023-02-15T07:51:09;38.55;;;20.02;;
51304;SDS011;37392;50.964;6.952;2023-02-15T07:53:37;36.47;;;19.58;;
51304;SDS011;37392;50.964;6.952;2023-02-15T07:56:04;34.80;;;20.33;;
51304;SDS011;37392;50.964;6.952;2023-02-15T07:58:34;36.75;;;19.90;;
51304;SDS011;37392;50.964;6.952;2023-02-15T08:01:23;36.72;;;19.90;;
51304;SDS011;37392;50.964;6.952;2023-02-15T08:03:56;36.53;;;19.85;;
51304;SDS011;37392;50.964;6.952;2023-02-15T08:06:23;35.65;;;18.92;;
51304;SDS011;37392;50.964;6.952;2023-02-15T08:08:51;35.65;;;19.30;;
51304;SDS011;37392;50.964;6.952;2023-02-15T08:11:18;30.25;;;17.40;;
51304;SDS011;37392;50.964;6.952;2023-02-15T08:16:46;28.08;;;16.20;;
51304;SDS011;37392;50.964;6.952;2023-02-15T08:19:14;31.27;;;17.50;;
51304;SDS011;37392;50.964;6.952;2023-02-15T08:21:52;30.25;;;17.92;;
51304;SDS011;37392;50.964;6.952;2023-02-15T08:24:24;30.52;;;16.92;;
51304;SDS011;37392;50.964;6.952;2023-02-15T08:26:55;30.23;;;17.85;;
51304;SDS011;37392;50.964;6.952;2023-02-15T08:29:22;28.60;;;16.30;;
51304;SDS011;37392;50.964;6.952;2023-02-15T08:31:55;27.35;;;16.25;;
51304;SDS011;37392;50.964;6.952;2023-02-15T08:34:27;28.15;;;16.75;;
51304;SDS011;37392;50.964;6.952;2023-02-15T08:36:55;25.75;;;15.10;;
51304;SDS011;37392;50.964;6.952;2023-02-15T08:39:21;28.20;;;17.27;;
51304;SDS011;37392;50.964;6.952;2023-02-15T08:41:47;30.92;;;17.00;;
51304;SDS011;37392;50.964;6.952;2023-02-15T08:44:14;26.42;;;14.88;;
51304;SDS011;37392;50.964;6.952;2023-02-15T08:46:43;26.52;;;16.85;;
51304;SDS011;37392;50.964;6.952;2023-02-15T08:49:11;24.70;;;15.82;;
51304;SDS011;37392;50.964;6.952;2023-02-15T08:51:43;23.80;;;13.85;;
51304;SDS011;37392;50.964;6.952;2023-02-15T08:54:10;24.45;;;15.50;;
51304;SDS011;37392;50.964;6.952;2023-02-15T08:56:39;27.15;;;15.70;;
51304;SDS011;37392;50.964;6.952;2023-02-15T08:59:10;25.48;;;15.02;;
51304;SDS011;37392;50.964;6.952;2023-02-15T09:01:42;30.75;;;15.70;;
51304;SDS011;37392;50.964;6.952;2023-02-15T09:04:09;24.38;;;14.38;;
51304;SDS011;37392;50.964;6.952;2023-02-15T09:06:35;23.30;;;13.85;;
51304;SDS011;37392;50.964;6.952;2023-02-15T09:09:03;26.48;;;15.20;;
51304;SDS011;37392;50.964;6.952;2023-02-15T09:11:29;25.15;;;14.82;;
51304;SDS011;37392;50.964;6.952;2023-02-15T09:14:00;25.98;;;15.20;;
51304;SDS011;37392;50.964;6.952;2023-02-15T09:16:46;25.30;;;14.40;;
51304;SDS011;37392;50.964;6.952;2023-02-15T09:19:15;26.05;;;14.43;;
51304;SDS011;37392;50.964;6.952;2023-02-15T09:21:42;27.00;;;14.95;;
51304;SDS011;37392;50.964;6.952;2023-02-15T09:24:09;23.80;;;14.65;;
51304;SDS011;37392;50.964;6.952;2023-02-15T09:26:38;27.42;;;14.90;;
51304;SDS011;37392;50.964;6.952;2023-02-15T09:29:07;24.42;;;14.77;;
51304;SDS011;37392;50.964;6.952;2023-02-15T09:31:45;20.77;;;13.02;;
51304;SDS011;37392;50.964;6.952;2023-02-15T09:34:14;20.08;;;12.70;;
51304;SDS011;37392;50.964;6.952;2023-02-15T09:36:43;23.23;;;13.45;;
51304;SDS011;37392;50.964;6.952;2023-02-15T09:39:11;21.15;;;13.13;;
51304;SDS011;37392;50.964;6.952;2023-02-15T10:01:08;21.88;;;12.98;;
51304;SDS011;37392;50.964;6.952;2023-02-15T10:13:21;23.27;;;13.75;;
51304;SDS011;37392;50.964;6.952;2023-02-15T10:16:14;22.88;;;13.68;;
51304;SDS011;37392;50.964;6.952;2023-02-15T10:19:03;21.25;;;13.68;;
51304;SDS011;37392;50.964;6.952;2023-02-15T10:27:37;20.00;;;12.93;;
51304;SDS011;37392;50.964;6.952;2023-02-15T10:33:01;23.75;;;13.68;;
51304;SDS011;37392;50.964;6.952;2023-02-15T10:35:47;21.67;;;13.45;;
51304;SDS011;37392;50.964;6.952;2023-02-15T10:38:22;26.35;;;14.15;;
51304;SDS011;37392;50.964;6.952;2023-02-15T10:41:09;20.73;;;13.02;;
51304;SDS011;37392;50.964;6.952;2023-02-15T10:46:55;28.27;;;15.82;;
51304;SDS011;37392;50.964;6.952;2023-02-15T11:00:22;21.70;;;13.30;;
51304;SDS011;37392;50.964;6.952;2023-02-15T11:03:00;25.85;;;14.60;;
51304;SDS011;37392;50.964;6.952;2023-02-15T11:06:11;24.80;;;14.20;;
51304;SDS011;37392;50.964;6.952;2023-02-15T11:08:40;26.52;;;13.27;;
51304;SDS011;37392;50.964;6.952;2023-02-15T11:11:14;20.52;;;12.85;;
51304;SDS011;37392;50.964;6.952;2023-02-15T11:13:48;23.92;;;13.10;;
51304;SDS011;37392;50.964;6.952;2023-02-15T11:16:25;28.42;;;14.40;;
51304;SDS011;37392;50.964;6.952;2023-02-15T11:19:26;20.90;;;14.20;;
51304;SDS011;37392;50.964;6.952;2023-02-15T11:22:02;21.75;;;13.98;;
51304;SDS011;37392;50.964;6.952;2023-02-15T11:24:31;25.52;;;14.02;;
51304;SDS011;37392;50.964;6.952;2023-02-15T11:27:20;30.25;;;15.75;;
51304;SDS011;37392;50.964;6.952;2023-02-15T11:32:45;24.73;;;13.00;;
51304;SDS011;37392;50.964;6.952;2023-02-15T11:35:24;30.10;;;14.70;;
51304;SDS011;37392;50.964;6.952;2023-02-15T11:38:13;23.63;;;12.85;;
51304;SDS011;37392;50.964;6.952;2023-02-15T11:40:51;25.85;;;12.93;;
51304;SDS011;37392;50.964;6.952;2023-02-15T11:46:10;27.25;;;14.43;;
51304;SDS011;37392;50.964;6.952;2023-02-15T11:48:37;31.42;;;13.35;;
51304;SDS011;37392;50.964;6.952;2023-02-15T11:51:04;31.05;;;14.85;;
51304;SDS011;37392;50.964;6.952;2023-02-15T11:53:34;26.08;;;13.57;;
51304;SDS011;37392;50.964;6.952;2023-02-15T11:56:02;25.00;;;13.40;;
51304;SDS011;37392;50.964;6.952;2023-02-15T12:01:10;24.52;;;13.25;;
51304;SDS011;37392;50.964;6.952;2023-02-15T12:06:51;25.25;;;13.80;;
51304;SDS011;37392;50.964;6.952;2023-02-15T12:12:24;32.30;;;16.45;;
51304;SDS011;37392;50.964;6.952;2023-02-15T12:15:03;28.48;;;14.90;;
51304;SDS011;37392;50.964;6.952;2023-02-15T12:17:53;36.67;;;14.50;;
51304;SDS011;37392;50.964;6.952;2023-02-15T12:22:51;32.58;;;14.02;;
51304;SDS011;37392;50.964;6.952;2023-02-15T12:25:21;28.10;;;13.07;;
51304;SDS011;37392;50.964;6.952;2023-02-15T12:28:02;27.38;;;13.85;;
51304;SDS011;37392;50.964;6.952;2023-02-15T12:30:41;25.73;;;13.30;;
51304;SDS011;37392;50.964;6.952;2023-02-15T12:36:08;32.42;;;14.45;;
51304;SDS011;37392;50.964;6.952;2023-02-15T12:38:40;25.10;;;13.25;;
51304;SDS011;37392;50.964;6.952;2023-02-15T12:41:21;20.60;;;13.73;;
51304;SDS011;37392;50.964;6.952;2023-02-15T12:44:04;23.60;;;14.23;;
51304;SDS011;37392;50.964;6.952;2023-02-15T12:46:40;31.70;;;14.18;;
51304;SDS011;37392;50.964;6.952;2023-02-15T12:49:18;22.27;;;13.10;;
51304;SDS011;37392;50.964;6.952;2023-02-15T12:51:50;22.02;;;13.52;;
51304;SDS011;37392;50.964;6.952;2023-02-15T13:00:05;31.15;;;14.25;;
51304;SDS011;37392;50.964;6.952;2023-02-15T13:02:53;25.90;;;13.52;;
51304;SDS011;37392;50.964;6.952;2023-02-15T13:05:23;23.73;;;13.32;;
51304;SDS011;37392;50.964;6.952;2023-02-15T13:07:53;27.77;;;14.38;;
51304;SDS011;37392;50.964;6.952;2023-02-15T13:10:31;24.38;;;13.52;;
51304;SDS011;37392;50.964;6.952;2023-02-15T13:13:01;26.75;;;13.20;;
51304;SDS011;37392;50.964;6.952;2023-02-15T13:15:36;31.92;;;14.20;;
51304;SDS011;37392;50.964;6.952;2023-02-15T13:18:10;36.15;;;14.90;;
51304;SDS011;37392;50.964;6.952;2023-02-15T13:20:41;24.65;;;13.88;;
51304;SDS011;37392;50.964;6.952;2023-02-15T13:23:19;24.60;;;13.07;;
51304;SDS011;37392;50.964;6.952;2023-02-15T13:25:57;30.95;;;13.95;;
51304;SDS011;37392;50.964;6.952;2023-02-15T13:28:45;22.98;;;13.27;;
51304;SDS011;37392;50.964;6.952;2023-02-15T13:31:15;27.33;;;13.77;;
51304;SDS011;37392;50.964;6.952;2023-02-15T13:33:51;23.60;;;13.15;;
51304;SDS011;37392;50.964;6.952;2023-02-15T13:36:30;26.00;;;14.10;;
51304;SDS011;37392;50.964;6.952;2023-02-15T13:42:18;22.98;;;13.52;;
51304;SDS011;37392;50.964;6.952;2023-02-15T13:53:53;28.52;;;13.60;;
51304;SDS011;37392;50.964;6.952;2023-02-15T14:02:52;29.15;;;13.63;;
51304;SDS011;37392;50.964;6.952;2023-02-15T14:09:07;26.52;;;12.77;;
51304;SDS011;37392;50.964;6.952;2023-02-15T14:17:43;26.60;;;13.25;;
51304;SDS011;37392;50.964;6.952;2023-02-15T14:26:42;22.73;;;13.88;;
51304;SDS011;37392;50.964;6.952;2023-02-15T14:30:18;26.17;;;13.43;;
51304;SDS011;37392;50.964;6.952;2023-02-15T14:32:33;26.38;;;12.82;;
51304;SDS011;37392;50.964;6.952;2023-02-15T14:35:08;25.08;;;13.30;;
51304;SDS011;37392;50.964;6.952;2023-02-15T14:37:47;34.17;;;14.80;;
51304;SDS011;37392;50.964;6.952;2023-02-15T14:49:30;33.38;;;15.52;;
51304;SDS011;37392;50.964;6.952;2023-02-15T14:52:02;26.42;;;13.25;;
51304;SDS011;37392;50.964;6.952;2023-02-15T14:59:35;27.10;;;13.02;;
51304;SDS011;37392;50.964;6.952;2023-02-15T15:07:41;40.35;;;15.10;;
51304;SDS011;37392;50.964;6.952;2023-02-15T15:12:51;27.60;;;13.55;;
51304;SDS011;37392;50.964;6.952;2023-02-15T15:20:38;28.73;;;14.27;;
51304;SDS011;37392;50.964;6.952;2023-02-15T15:25:47;29.08;;;13.40;;
51304;SDS011;37392;50.964;6.952;2023-02-15T15:42:58;26.45;;;14.52;;
51304;SDS011;37392;50.964;6.952;2023-02-15T15:49:10;23.77;;;13.05;;
51304;SDS011;37392;50.964;6.952;2023-02-15T15:51:41;28.20;;;13.90;;
51304;SDS011;37392;50.964;6.952;2023-02-15T15:54:12;31.05;;;13.48;;
51304;SDS011;37392;50.964;6.952;2023-02-15T15:56:43;29.23;;;15.07;;
51304;SDS011;37392;50.964;6.952;2023-02-15T16:01:50;28.05;;;14.73;;
51304;SDS011;37392;50.964;6.952;2023-02-15T16:06:55;25.05;;;13.70;;
51304;SDS011;37392;50.964;6.952;2023-02-15T16:09:23;25.05;;;14.77;;
51304;SDS011;37392;50.964;6.952;2023-02-15T16:11:55;27.33;;;15.65;;
51304;SDS011;37392;50.964;6.952;2023-02-15T16:14:30;24.38;;;14.85;;
51304;SDS011;37392;50.964;6.952;2023-02-15T16:17:01;26.13;;;14.88;;
51304;SDS011;37392;50.964;6.952;2023-02-15T16:22:08;25.77;;;14.02;;
51304;SDS011;37392;50.964;6.952;2023-02-15T16:27:47;30.80;;;14.57;;
51304;SDS011;37392;50.964;6.952;2023-02-15T16:32:53;29.58;;;15.23;;
51304;SDS011;37392;50.964;6.952;2023-02-15T16:35:52;24.45;;;13.90;;
51304;SDS011;37392;50.964;6.952;2023-02-15T16:38:30;24.58;;;13.77;;
51304;SDS011;37392;50.964;6.952;2023-02-15T16:41:09;37.42;;;16.15;;
51304;SDS011;37392;50.964;6.952;2023-02-15T16:43:38;33.83;;;15.10;;
51304;SDS011;37392;50.964;6.952;2023-02-15T16:46:10;36.58;;;14.55;;
51304;SDS011;37392;50.964;6.952;2023-02-15T16:48:49;34.20;;;15.27;;
51304;SDS011;37392;50.964;6.952;2023-02-15T16:51:22;25.60;;;15.75;;
51304;SDS011;37392;50.964;6.952;2023-02-15T16:53:53;30.35;;;15.23;;
51304;SDS011;37392;50.964;6.952;2023-02-15T16:56:24;31.05;;;16.15;;
51304;SDS011;37392;50.964;6.952;2023-02-15T16:58:53;34.40;;;16.05;;
51304;SDS011;37392;50.964;6.952;2023-02-15T17:01:21;30.77;;;15.38;;
51304;SDS011;37392;50.964;6.952;2023-02-15T17:04:21;29.80;;;15.75;;
51304;SDS011;37392;50.964;6.952;2023-02-15T17:09:49;32.53;;;15.68;;
51304;SDS011;37392;50.964;6.952;2023-02-15T17:18:04;31.92;;;16.85;;
51304;SDS011;37392;50.964;6.952;2023-02-15T17:21:12;26.23;;;15.52;;
51304;SDS011;37392;50.964;6.952;2023-02-15T17:23:49;32.70;;;16.63;;
51304;SDS011;37392;50.964;6.952;2023-02-15T17:26:21;30.23;;;15.98;;
51304;SDS011;37392;50.964;6.952;2023-02-15T17:28:53;32.88;;;17.45;;
51304;SDS011;37392;50.964;6.952;2023-02-15T17:31:24;34.60;;;17.73;;
51304;SDS011;37392;50.964;6.952;2023-02-15T17:33:56;32.35;;;16.50;;
51304;SDS011;37392;50.964;6.952;2023-02-15T17:36:24;31.88;;;15.95;;
51304;SDS011;37392;50.964;6.952;2023-02-15T17:41:27;34.58;;;19.25;;
51304;SDS011;37392;50.964;6.952;2023-02-15T17:43:55;34.70;;;19.23;;
51304;SDS011;37392;50.964;6.952;2023-02-15T17:46:22;43.58;;;23.10;;
51304;SDS011;37392;50.964;6.952;2023-02-15T17:48:50;34.90;;;18.83;;
51304;SDS011;37392;50.964;6.952;2023-02-15T17:51:21;34.35;;;17.80;;
51304;SDS011;37392;50.964;6.952;2023-02-15T17:53:50;31.30;;;15.77;;
51304;SDS011;37392;50.964;6.952;2023-02-15T17:56:39;30.70;;;16.55;;
51304;SDS011;37392;50.964;6.952;2023-02-15T17:59:04;36.88;;;17.17;;
51304;SDS011;37392;50.964;6.952;2023-02-15T18:01:36;28.08;;;15.73;;
51304;SDS011;37392;50.964;6.952;2023-02-15T18:04:31;33.33;;;18.42;;
51304;SDS011;37392;50.964;6.952;2023-02-15T18:07:17;31.73;;;16.02;;
51304;SDS011;37392;50.964;6.952;2023-02-15T18:10:03;29.55;;;16.35;;
51304;SDS011;37392;50.964;6.952;2023-02-15T18:13:01;30.23;;;17.15;;
51304;SDS011;37392;50.964;6.952;2023-02-15T18:15:27;31.75;;;16.30;;
51304;SDS011;37392;50.964;6.952;2023-02-15T18:17:53;32.10;;;16.55;;
51304;SDS011;37392;50.964;6.952;2023-02-15T18:20:20;35.97;;;16.83;;
51304;SDS011;37392;50.964;6.952;2023-02-15T18:22:51;26.58;;;16.27;;
51304;SDS011;37392;50.964;6.952;2023-02-15T18:25:17;34.65;;;16.00;;
51304;SDS011;37392;50.964;6.952;2023-02-15T18:27:46;28.33;;;15.60;;
51304;SDS011;37392;50.964;6.952;2023-02-15T18:30:16;28.67;;;15.20;;
51304;SDS011;37392;50.964;6.952;2023-02-15T18:32:48;34.42;;;14.93;;
51304;SDS011;37392;50.964;6.952;2023-02-15T18:35:21;32.75;;;16.65;;
51304;SDS011;37392;50.964;6.952;2023-02-15T18:37:48;30.90;;;15.70;;
51304;SDS011;37392;50.964;6.952;2023-02-15T18:40:18;31.58;;;15.88;;
51304;SDS011;37392;50.964;6.952;2023-02-15T18:42:47;31.85;;;17.13;;